Time,TemperatureF,DewpointF,PressureIn,WindDirection,WindDirectionDegrees,WindSpeedMPH,WindSpeedGustMPH,Humidity,HourlyPrecipIn,Conditions,Clouds,dailyrainin,SolarRadiationWatts/m^2,SoftwareType,DateUTC
2013-10-21 00:04:00,33.0,33.0,-100.00,NNW,346,2.0,4.0,99,0.00,,,0.28,0.000000,,2013-10-21 05:04:00,
2013-10-21 00:10:00,33.0,32.0,-100.00,NNW,341,1.0,5.0,98,0.01,,,0.29,0.000000,,2013-10-21 05:10:00,
2013-10-21 00:43:00,33.0,32.0,-100.00,NNW,341,1.0,5.0,98,0.01,,,0.29,0.000000,,2013-10-21 05:43:00,
2013-10-21 00:52:00,33.0,32.0,-100.00,NNW,341,1.0,5.0,98,0.01,,,0.29,0.000000,,2013-10-21 05:52:00,
2013-10-21 01:02:00,33.0,32.0,-100.00,NNW,341,1.0,5.0,98,0.01,,,0.29,0.000000,,2013-10-21 06:02:00,
2013-10-21 01:10:00,34.0,34.0,-100.00,NNW,331,3.0,7.0,98,0.00,,,0.29,0.000000,,2013-10-21 06:10:00,
2013-10-21 01:42:00,34.0,34.0,-100.00,NNW,331,3.0,7.0,98,0.00,,,0.29,0.000000,,2013-10-21 06:42:00,
2013-10-21 01:52:00,34.0,34.0,-100.00,NNW,331,3.0,7.0,98,0.00,,,0.29,0.000000,,2013-10-21 06:52:00,
2013-10-21 02:02:00,34.0,34.0,-100.00,NNW,331,3.0,7.0,98,0.00,,,0.29,0.000000,,2013-10-21 07:02:00,
2013-10-21 02:10:00,34.0,33.0,-100.00,NW,318,3.0,8.0,97,0.00,,,0.29,0.000000,,2013-10-21 07:10:00,
2013-10-21 02:43:00,34.0,33.0,-100.00,NW,318,3.0,8.0,97,0.00,,,0.29,0.000000,,2013-10-21 07:43:00,
2013-10-21 02:52:00,34.0,33.0,-100.00,NW,318,3.0,8.0,97,0.00,,,0.29,0.000000,,2013-10-21 07:52:00,
2013-10-21 03:03:00,34.0,33.0,-100.00,NW,318,3.0,8.0,97,0.00,,,0.29,0.000000,,2013-10-21 08:03:00,
2013-10-21 03:10:00,34.0,33.0,-100.00,WNW,295,4.0,10.0,97,0.00,,,0.29,0.000000,,2013-10-21 08:10:00,
2013-10-21 03:42:00,34.0,33.0,-100.00,WNW,295,4.0,10.0,97,0.00,,,0.29,0.000000,,2013-10-21 08:42:00,
2013-10-21 03:52:00,34.0,33.0,-100.00,WNW,295,4.0,10.0,97,0.00,,,0.29,0.000000,,2013-10-21 08:52:00,
2013-10-21 04:02:00,34.0,33.0,-100.00,WNW,295,4.0,10.0,97,0.00,,,0.29,0.000000,,2013-10-21 09:02:00,
2013-10-21 04:10:00,34.0,32.0,-100.00,NW,311,4.0,13.0,94,0.00,,,0.29,0.000000,,2013-10-21 09:10:00,
2013-10-21 04:43:00,34.0,32.0,-100.00,NW,311,4.0,13.0,94,0.00,,,0.29,0.000000,,2013-10-21 09:43:00,
2013-10-21 04:54:00,34.0,32.0,-100.00,NW,311,4.0,13.0,94,0.00,,,0.29,0.000000,,2013-10-21 09:54:00,
2013-10-21 05:03:00,34.0,32.0,-100.00,NW,311,4.0,13.0,94,0.00,,,0.29,0.000000,,2013-10-21 10:03:00,
2013-10-21 05:10:00,33.0,32.0,-100.00,NW,310,4.0,10.0,95,0.01,,,0.30,0.000000,,2013-10-21 10:10:00,
2013-10-21 05:43:00,33.0,32.0,-100.00,NW,310,4.0,10.0,95,0.01,,,0.30,0.000000,,2013-10-21 10:43:00,
2013-10-21 05:52:00,33.0,32.0,-100.00,NW,310,4.0,10.0,95,0.01,,,0.30,0.000000,,2013-10-21 10:52:00,
2013-10-21 06:02:00,33.0,32.0,-100.00,NW,310,4.0,10.0,95,0.01,,,0.30,0.000000,,2013-10-21 11:02:00,
2013-10-21 06:10:00,33.0,31.0,-100.00,NW,314,4.0,13.0,93,0.00,,,0.30,0.000000,,2013-10-21 11:10:00,
2013-10-21 06:42:00,33.0,31.0,-100.00,NW,314,4.0,13.0,93,0.00,,,0.30,0.000000,,2013-10-21 11:42:00,
2013-10-21 06:52:00,33.0,31.0,-100.00,NW,314,4.0,13.0,93,0.00,,,0.30,0.000000,,2013-10-21 11:52:00,
2013-10-21 07:01:00,33.0,31.0,-100.00,NW,314,4.0,13.0,93,0.00,,,0.30,0.000000,,2013-10-21 12:01:00,
2013-10-21 07:10:00,32.0,30.0,-100.00,NW,314,4.0,11.0,91,0.01,,,0.31,0.000000,,2013-10-21 12:10:00,
2013-10-21 07:42:00,32.0,30.0,-100.00,NW,314,4.0,11.0,91,0.01,,,0.31,0.000000,,2013-10-21 12:42:00,
2013-10-21 07:52:00,32.0,30.0,-100.00,NW,314,4.0,11.0,91,0.01,,,0.31,0.000000,,2013-10-21 12:52:00,
2013-10-21 08:02:00,32.0,30.0,-100.00,NW,314,4.0,11.0,91,0.01,,,0.31,0.000000,,2013-10-21 13:02:00,
2013-10-21 08:10:00,31.0,27.0,-100.00,NW,316,6.0,14.0,85,0.00,,,0.31,8.000000,,2013-10-21 13:10:00,
2013-10-21 08:42:00,31.0,27.0,-100.00,NW,316,6.0,14.0,85,0.00,,,0.31,8.000000,,2013-10-21 13:42:00,
2013-10-21 08:52:00,31.0,27.0,-100.00,NW,316,6.0,14.0,85,0.00,,,0.31,8.000000,,2013-10-21 13:52:00,
2013-10-21 09:02:00,31.0,27.0,-100.00,NW,316,6.0,14.0,85,0.00,,,0.31,8.000000,,2013-10-21 14:02:00,
2013-10-21 09:10:00,30.0,25.0,-100.00,WNW,290,5.0,15.0,80,0.00,,,0.31,32.000000,,2013-10-21 14:10:00,
2013-10-21 09:42:00,30.0,25.0,-100.00,WNW,290,5.0,15.0,80,0.00,,,0.31,32.000000,,2013-10-21 14:42:00,
2013-10-21 09:52:00,30.0,25.0,-100.00,WNW,290,5.0,15.0,80,0.00,,,0.31,32.000000,,2013-10-21 14:52:00,
2013-10-21 10:02:00,30.0,25.0,-100.00,WNW,290,5.0,15.0,80,0.00,,,0.31,32.000000,,2013-10-21 15:02:00,
2013-10-21 10:10:00,31.0,25.0,-100.00,West,276,4.0,12.0,78,0.00,,,0.31,75.000000,,2013-10-21 15:10:00,
2013-10-21 10:43:00,31.0,25.0,-100.00,West,276,4.0,12.0,78,0.00,,,0.31,75.000000,,2013-10-21 15:43:00,
2013-10-21 10:54:00,31.0,25.0,-100.00,West,276,4.0,12.0,78,0.00,,,0.31,75.000000,,2013-10-21 15:54:00,
2013-10-21 11:03:00,31.0,25.0,-100.00,West,276,4.0,12.0,78,0.00,,,0.31,75.000000,,2013-10-21 16:03:00,
2013-10-21 11:10:00,31.0,26.0,-100.00,West,270,4.0,15.0,82,0.00,,,0.31,112.000000,,2013-10-21 16:10:00,
2013-10-21 11:43:00,31.0,26.0,-100.00,West,270,4.0,15.0,82,0.00,,,0.31,112.000000,,2013-10-21 16:43:00,
2013-10-21 11:54:00,31.0,26.0,-100.00,West,270,4.0,15.0,82,0.00,,,0.31,112.000000,,2013-10-21 16:54:00,
2013-10-21 12:02:00,31.0,26.0,-100.00,West,270,4.0,15.0,82,0.00,,,0.31,112.000000,,2013-10-21 17:02:00,
2013-10-21 12:10:00,31.0,22.0,-100.00,WNW,284,5.0,14.0,70,0.00,,,0.31,125.000000,,2013-10-21 17:10:00,
2013-10-21 12:43:00,31.0,22.0,-100.00,WNW,284,5.0,14.0,70,0.00,,,0.31,125.000000,,2013-10-21 17:43:00,
2013-10-21 12:53:00,31.0,22.0,-100.00,WNW,284,5.0,14.0,70,0.00,,,0.31,125.000000,,2013-10-21 17:53:00,
2013-10-21 13:02:00,31.0,22.0,-100.00,WNW,284,5.0,14.0,70,0.00,,,0.31,125.000000,,2013-10-21 18:02:00,
2013-10-21 13:10:00,32.0,22.0,-100.00,WNW,300,5.0,16.0,65,0.00,,,0.31,153.000000,,2013-10-21 18:10:00,
2013-10-21 13:42:00,32.0,22.0,-100.00,WNW,300,5.0,16.0,65,0.00,,,0.31,153.000000,,2013-10-21 18:42:00,
2013-10-21 13:52:00,32.0,22.0,-100.00,WNW,300,5.0,16.0,65,0.00,,,0.31,153.000000,,2013-10-21 18:52:00,
2013-10-21 14:02:00,32.0,22.0,-100.00,WNW,300,5.0,16.0,65,0.00,,,0.31,153.000000,,2013-10-21 19:02:00,
2013-10-21 14:10:00,31.0,20.0,-100.00,WNW,300,6.0,16.0,63,0.00,,,0.31,96.000000,,2013-10-21 19:10:00,
2013-10-21 14:42:00,31.0,20.0,-100.00,WNW,300,6.0,16.0,63,0.00,,,0.31,96.000000,,2013-10-21 19:42:00,
2013-10-21 14:52:00,31.0,20.0,-100.00,WNW,300,6.0,16.0,63,0.00,,,0.31,96.000000,,2013-10-21 19:52:00,
2013-10-21 15:02:00,31.0,20.0,-100.00,WNW,300,6.0,16.0,63,0.00,,,0.31,96.000000,,2013-10-21 20:02:00,
2013-10-21 15:10:00,32.0,21.0,-100.00,West,276,4.0,15.0,63,0.00,,,0.31,122.000000,,2013-10-21 20:10:00,
2013-10-21 15:43:00,32.0,21.0,-100.00,West,276,4.0,15.0,63,0.00,,,0.31,122.000000,,2013-10-21 20:43:00,
2013-10-21 15:53:00,32.0,21.0,-100.00,West,276,4.0,15.0,63,0.00,,,0.31,122.000000,,2013-10-21 20:53:00,
2013-10-21 16:03:00,32.0,21.0,-100.00,West,276,4.0,15.0,63,0.00,,,0.31,122.000000,,2013-10-21 21:03:00,
2013-10-21 16:10:00,30.0,25.0,-100.00,West,260,5.0,18.0,81,0.00,,,0.27,112.000000,,2013-10-21 21:10:00,
2013-10-21 16:44:00,30.0,25.0,-100.00,West,260,5.0,18.0,81,0.00,,,0.27,112.000000,,2013-10-21 21:44:00,
2013-10-21 16:54:00,30.0,25.0,-100.00,West,260,5.0,18.0,81,0.00,,,0.27,112.000000,,2013-10-21 21:54:00,
2013-10-21 17:04:00,30.0,25.0,-100.00,West,260,5.0,18.0,81,0.00,,,0.27,112.000000,,2013-10-21 22:04:00,
2013-10-21 17:10:00,31.0,24.0,-100.00,WSW,257,3.0,14.0,75,0.00,,,0.23,58.000000,,2013-10-21 22:10:00,
2013-10-21 17:44:00,31.0,24.0,-100.00,WSW,257,3.0,14.0,75,0.00,,,0.23,58.000000,,2013-10-21 22:44:00,
2013-10-21 17:53:00,31.0,24.0,-100.00,WSW,257,3.0,14.0,75,0.00,,,0.23,58.000000,,2013-10-21 22:53:00,
2013-10-21 18:03:00,31.0,24.0,-100.00,WSW,257,3.0,14.0,75,0.00,,,0.23,58.000000,,2013-10-21 23:03:00,
2013-10-21 18:10:00,29.0,26.0,-100.00,WSW,255,4.0,13.0,89,0.02,,,0.21,9.000000,,2013-10-21 23:10:00,
2013-10-21 18:42:00,29.0,26.0,-100.00,WSW,255,4.0,13.0,89,0.02,,,0.21,9.000000,,2013-10-21 23:42:00,
2013-10-21 18:53:00,29.0,26.0,-100.00,WSW,255,4.0,13.0,89,0.02,,,0.21,9.000000,,2013-10-21 23:53:00,
2013-10-21 19:02:00,29.0,26.0,-100.00,WSW,255,4.0,13.0,89,0.02,,,0.21,9.000000,,2013-10-22 00:02:00,
2013-10-21 19:10:00,29.0,25.0,-100.00,WSW,258,5.0,14.0,84,0.00,,,0.13,0.000000,,2013-10-22 00:10:00,
2013-10-21 19:42:00,29.0,25.0,-100.00,WSW,258,5.0,14.0,84,0.00,,,0.13,0.000000,,2013-10-22 00:42:00,
2013-10-21 19:53:00,29.0,25.0,-100.00,WSW,258,5.0,14.0,84,0.00,,,0.13,0.000000,,2013-10-22 00:53:00,
2013-10-21 20:03:00,29.0,25.0,-100.00,WSW,258,5.0,14.0,84,0.00,,,0.13,0.000000,,2013-10-22 01:03:00,
2013-10-21 20:10:00,29.0,25.0,-100.00,West,266,5.0,13.0,86,0.00,,,0.10,0.000000,,2013-10-22 01:10:00,
2013-10-21 20:42:00,29.0,25.0,-100.00,West,266,5.0,13.0,86,0.00,,,0.10,0.000000,,2013-10-22 01:42:00,
2013-10-21 20:53:00,29.0,25.0,-100.00,West,266,5.0,13.0,86,0.00,,,0.10,0.000000,,2013-10-22 01:53:00,
2013-10-21 21:02:00,29.0,25.0,-100.00,West,266,5.0,13.0,86,0.00,,,0.10,0.000000,,2013-10-22 02:02:00,
2013-10-21 21:10:00,30.0,26.0,-100.00,West,277,5.0,16.0,86,0.00,,,0.08,0.000000,,2013-10-22 02:10:00,
2013-10-21 21:43:00,30.0,26.0,-100.00,West,277,5.0,16.0,86,0.00,,,0.08,0.000000,,2013-10-22 02:43:00,
2013-10-21 21:52:00,30.0,26.0,-100.00,West,277,5.0,16.0,86,0.00,,,0.08,0.000000,,2013-10-22 02:52:00,
2013-10-21 22:03:00,30.0,26.0,-100.00,West,277,5.0,16.0,86,0.00,,,0.08,0.000000,,2013-10-22 03:03:00,
2013-10-21 22:10:00,30.0,28.0,-100.00,West,269,4.0,18.0,91,0.00,,,0.05,0.000000,,2013-10-22 03:10:00,
2013-10-21 22:45:00,30.0,28.0,-100.00,West,269,4.0,18.0,91,0.00,,,0.05,0.000000,,2013-10-22 03:45:00,
2013-10-21 22:55:00,30.0,28.0,-100.00,West,269,4.0,18.0,91,0.00,,,0.05,0.000000,,2013-10-22 03:55:00,
2013-10-21 23:05:00,30.0,28.0,-100.00,West,269,4.0,18.0,91,0.00,,,0.05,0.000000,,2013-10-22 04:05:00,
2013-10-21 23:10:00,31.0,29.0,-100.00,West,265,5.0,14.0,93,0.00,,,0.05,0.000000,,2013-10-22 04:10:00,
2013-10-21 23:43:00,31.0,29.0,-100.00,West,265,5.0,14.0,93,0.00,,,0.05,0.000000,,2013-10-22 04:43:00,
2013-10-21 23:55:00,31.0,29.0,-100.00,West,265,5.0,14.0,93,0.00,,,0.05,0.000000,,2013-10-22 04:55:00,